createdAt,value
2019-02-17T00:02:04.841Z,82.02
2019-02-17T00:04:36.926Z,81.94
2019-02-17T00:07:08.098Z,82.34
2019-02-17T00:09:39.390Z,82.02
2019-02-17T00:12:10.867Z,82.33
2019-02-17T00:14:42.088Z,82.27
2019-02-17T00:17:13.769Z,82.48
2019-02-17T00:19:45.342Z,83.13
2019-02-17T00:22:16.342Z,83.70
2019-02-17T00:24:47.171Z,83.43
2019-02-17T00:27:18.343Z,83.55
2019-02-17T00:29:49.381Z,83.04
2019-02-17T00:32:20.514Z,83.44
2019-02-17T00:34:51.608Z,82.98
2019-02-17T00:37:22.663Z,82.98
2019-02-17T00:39:53.821Z,83.21
2019-02-17T00:42:24.839Z,83.51
2019-02-17T00:44:55.956Z,83.80
2019-02-17T00:47:27.243Z,83.80
2019-02-17T00:49:58.389Z,83.42
2019-02-17T00:52:29.474Z,84.73
2019-02-17T00:55:00.582Z,83.64
2019-02-17T00:57:33.271Z,84.89
2019-02-17T01:00:07.585Z,84.89
2019-02-17T01:02:38.362Z,83.77
2019-02-17T01:05:09.228Z,82.57
2019-02-17T01:07:40.442Z,81.04
2019-02-17T01:10:11.968Z,81.04
2019-02-17T01:12:42.943Z,80.91
2019-02-17T01:15:13.923Z,80.51
2019-02-17T01:17:45.673Z,80.96
2019-02-17T01:20:16.579Z,80.86
2019-02-17T01:22:47.351Z,80.71
2019-02-17T01:25:19.401Z,81.08
2019-02-17T01:27:50.666Z,81.43
2019-02-17T01:30:21.982Z,81.43
2019-02-17T01:32:52.791Z,81.97
2019-02-17T01:35:24.144Z,81.95
2019-02-17T01:37:55.824Z,82.02
2019-02-17T01:40:27.104Z,82.37
2019-02-17T01:42:58.598Z,82.13
2019-02-17T01:45:29.670Z,81.68
2019-02-17T01:48:01.383Z,82.28
2019-02-17T01:50:32.559Z,82.29
2019-02-17T01:53:04.043Z,82.35
2019-02-17T01:55:35.187Z,82.41
2019-02-17T01:58:06.031Z,81.65
2019-02-17T02:00:37.120Z,81.90
2019-02-17T02:03:08.903Z,81.73
2019-02-17T02:05:40.614Z,81.73
2019-02-17T02:08:11.708Z,81.81
2019-02-17T02:10:43.319Z,82.23
2019-02-17T02:13:14.297Z,82.76
2019-02-17T02:15:45.418Z,84.14
2019-02-17T02:18:16.546Z,84.14
2019-02-17T02:20:48.059Z,83.39
2019-02-17T02:23:18.879Z,83.18
2019-02-17T02:25:50.422Z,83.12
2019-02-17T02:28:21.039Z,82.95
2019-02-17T02:30:51.987Z,83.02
2019-02-17T02:33:22.573Z,83.18
2019-02-17T02:35:53.810Z,83.08
2019-02-17T02:38:24.579Z,82.87
2019-02-17T02:40:55.740Z,82.93
2019-02-17T02:43:26.882Z,83.08
2019-02-17T02:45:58.201Z,83.16
2019-02-17T02:48:29.283Z,82.87
2019-02-17T02:51:00.382Z,83.22
2019-02-17T02:53:31.342Z,83.11
2019-02-17T02:56:02.325Z,83.12
2019-02-17T02:58:32.943Z,82.98
2019-02-17T03:01:05.526Z,82.78
2019-02-17T03:03:37.025Z,83.07
2019-02-17T03:06:09.466Z,83.07
2019-02-17T03:08:40.826Z,83.14
2019-02-17T03:11:11.946Z,83.18
2019-02-17T03:13:43.180Z,83.10
2019-02-17T03:16:14.513Z,83.25
2019-02-17T03:18:45.789Z,83.37
2019-02-17T03:21:16.510Z,83.29
2019-02-17T03:23:47.335Z,83.04
2019-02-17T03:26:18.823Z,83.04
2019-02-17T03:28:49.546Z,82.36
2019-02-17T03:31:21.589Z,82.23
2019-02-17T03:33:52.916Z,82.06
2019-02-17T03:36:24.338Z,82.12
2019-02-17T03:38:55.402Z,81.83
2019-02-17T03:41:26.263Z,82.02
2019-02-17T03:43:57.965Z,81.88
2019-02-17T03:46:29.400Z,81.85
2019-02-17T03:49:00.018Z,82.09
2019-02-17T03:51:32.351Z,82.09
2019-02-17T03:54:03.634Z,82.58
2019-02-17T03:56:34.428Z,83.07
2019-02-17T03:59:05.259Z,83.15
2019-02-17T04:01:36.667Z,83.10
2019-02-17T04:04:07.618Z,82.88
2019-02-17T04:06:38.986Z,82.51
2019-02-17T04:09:09.910Z,82.15
2019-02-17T04:11:40.921Z,81.86
2019-02-17T04:14:11.823Z,81.64
2019-02-17T04:16:43.323Z,82.13
2019-02-17T04:19:14.674Z,81.59
2019-02-17T04:21:45.888Z,80.91
2019-02-17T04:24:16.922Z,80.31
2019-02-17T04:26:51.300Z,80.31
2019-02-17T04:29:22.236Z,79.99
2019-02-17T04:31:52.883Z,80.10
2019-02-17T04:34:23.505Z,80.40
2019-02-17T04:36:55.278Z,80.81
2019-02-17T04:39:26.476Z,80.81
2019-02-17T04:41:57.105Z,80.95
2019-02-17T04:44:28.567Z,81.05
2019-02-17T04:46:59.825Z,81.91
2019-02-17T04:49:30.704Z,81.91
2019-02-17T04:52:01.991Z,81.94
2019-02-17T04:54:33.319Z,81.75
2019-02-17T04:57:04.284Z,81.98
2019-02-17T04:59:35.350Z,82.05
2019-02-17T05:02:06.364Z,82.46
2019-02-17T05:04:37.381Z,82.81
2019-02-17T05:07:08.778Z,82.71
2019-02-17T05:09:40.304Z,81.63
2019-02-17T05:12:11.277Z,81.63
2019-02-17T05:14:42.778Z,81.92
2019-02-17T05:17:13.590Z,82.97
2019-02-17T05:19:44.918Z,82.95
2019-02-17T05:22:15.650Z,82.59
2019-02-17T05:24:46.676Z,82.59
2019-02-17T05:27:17.791Z,82.55
2019-02-17T05:29:48.813Z,81.77
2019-02-17T05:32:20.128Z,81.12
2019-02-17T05:34:50.820Z,80.75
2019-02-17T05:37:22.176Z,80.75
2019-02-17T05:39:53.481Z,80.66
2019-02-17T05:42:24.307Z,81.07
2019-02-17T05:44:55.329Z,81.22
2019-02-17T05:47:26.527Z,81.37
2019-02-17T05:49:59.379Z,81.37
2019-02-17T05:52:31.897Z,81.65
2019-02-17T05:55:03.670Z,81.87
2019-02-17T05:57:34.467Z,81.79
2019-02-17T06:00:08.597Z,82.21
2019-02-17T06:02:39.759Z,81.74
2019-02-17T06:05:11.438Z,81.98
2019-02-17T06:07:42.552Z,82.21
2019-02-17T06:10:13.507Z,82.01
2019-02-17T06:12:44.722Z,82.14
2019-02-17T06:15:16.290Z,82.37
2019-02-17T06:17:48.021Z,82.54
2019-02-17T06:20:19.087Z,82.88
2019-02-17T06:22:50.056Z,83.00
2019-02-17T06:25:21.030Z,83.00
2019-02-17T06:27:52.448Z,82.78
2019-02-17T06:30:23.519Z,82.77
2019-02-17T06:32:54.919Z,82.75
2019-02-17T06:35:25.616Z,82.77
2019-02-17T06:37:56.349Z,82.65
2019-02-17T06:40:26.936Z,83.62
2019-02-17T06:42:58.102Z,83.76
2019-02-17T06:45:29.486Z,83.89
2019-02-17T06:48:00.701Z,83.96
2019-02-17T06:50:32.853Z,83.60
2019-02-17T06:53:04.061Z,83.80
2019-02-17T06:55:36.739Z,84.20
2019-02-17T06:58:07.638Z,83.86
2019-02-17T07:00:40.139Z,84.10
2019-02-17T07:03:11.581Z,83.74
2019-02-17T07:05:44.207Z,83.61
2019-02-17T07:08:15.225Z,83.49
2019-02-17T07:10:45.953Z,83.29
2019-02-17T07:13:17.025Z,83.22
2019-02-17T07:15:50.147Z,83.22
2019-02-17T07:18:21.405Z,82.96
2019-02-17T07:20:52.821Z,83.12
2019-02-17T07:23:23.538Z,82.94
2019-02-17T07:25:54.619Z,82.74
2019-02-17T07:28:25.701Z,82.74
2019-02-17T07:30:56.663Z,82.26
2019-02-17T07:33:28.337Z,81.93
2019-02-17T07:35:59.514Z,81.93
2019-02-17T07:38:30.985Z,81.95
2019-02-17T07:41:02.390Z,81.90
2019-02-17T07:43:32.863Z,81.36
2019-02-17T07:46:03.909Z,80.98
2019-02-17T07:48:35.565Z,80.55
2019-02-17T07:51:06.818Z,80.40
2019-02-17T07:53:37.405Z,79.83
2019-02-17T07:56:07.739Z,79.35
2019-02-17T07:58:38.247Z,79.68
2019-02-17T08:01:08.799Z,79.14
2019-02-17T08:03:40.481Z,79.93
2019-02-17T08:06:12.099Z,79.81
2019-02-17T08:08:43.686Z,80.45
2019-02-17T08:11:18.730Z,79.82
2019-02-17T08:13:55.078Z,79.53
2019-02-17T08:16:32.716Z,78.65
2019-02-17T08:19:08.784Z,78.38
2019-02-17T08:21:40.216Z,78.92
2019-02-17T08:24:18.549Z,78.18
2019-02-17T08:26:59.113Z,77.61
2019-02-17T08:29:39.712Z,76.08
2019-02-17T08:32:14.559Z,74.92
2019-02-17T08:34:45.423Z,73.37
2019-02-17T08:37:17.921Z,71.39
2019-02-17T08:39:50.177Z,70.63
2019-02-17T08:42:22.360Z,69.73
2019-02-17T08:44:52.920Z,69.69
2019-02-17T08:47:23.619Z,69.54
2019-02-17T08:49:54.300Z,68.62
2019-02-17T08:52:24.878Z,67.87
2019-02-17T08:54:55.436Z,67.40
2019-02-17T08:57:26.142Z,67.00
2019-02-17T08:59:57.465Z,67.34
2019-02-17T09:02:28.143Z,66.19
2019-02-17T09:04:58.997Z,65.01
2019-02-17T09:07:30.047Z,65.80
2019-02-17T09:10:01.139Z,65.52
2019-02-17T09:12:31.604Z,65.02
2019-02-17T09:15:02.701Z,64.17
2019-02-17T09:17:33.774Z,63.55
2019-02-17T09:20:05.110Z,64.08
2019-02-17T09:22:35.878Z,64.01
2019-02-17T09:25:08.983Z,64.85
2019-02-17T09:27:39.588Z,62.67
2019-02-17T09:30:13.176Z,61.95
2019-02-17T09:32:43.938Z,61.66
2019-02-17T09:35:14.349Z,61.82
2019-02-17T09:37:45.457Z,61.36
2019-02-17T09:40:18.325Z,60.77
2019-02-17T09:42:49.360Z,60.46
2019-02-17T09:45:20.185Z,61.09
2019-02-17T09:47:50.612Z,59.74
2019-02-17T09:50:24.464Z,60.64
2019-02-17T09:52:55.152Z,60.82
2019-02-17T09:55:25.883Z,60.52
2019-02-17T09:57:56.578Z,60.06
2019-02-17T10:00:28.160Z,60.60
2019-02-17T10:02:58.921Z,59.79
2019-02-17T10:05:31.627Z,59.65
2019-02-17T10:08:11.102Z,58.87
2019-02-17T10:10:47.044Z,60.12
2019-02-17T10:13:18.821Z,58.75
2019-02-17T10:15:49.466Z,59.25
2019-02-17T10:18:27.822Z,58.88
2019-02-17T10:21:00.469Z,58.47
2019-02-17T10:23:33.800Z,58.66
2019-02-17T10:26:04.186Z,58.39
2019-02-17T10:28:42.004Z,57.89
2019-02-17T10:31:07.942Z,57.84
2019-02-17T10:33:38.623Z,58.66
2019-02-17T10:36:09.047Z,59.07
2019-02-17T10:38:39.685Z,58.37
2019-02-17T10:41:10.400Z,57.85
2019-02-17T10:43:40.981Z,58.58
2019-02-17T10:46:12.613Z,57.72
2019-02-17T10:48:43.353Z,59.67
2019-02-17T10:51:13.644Z,59.89
2019-02-17T10:53:43.959Z,60.82
2019-02-17T10:56:16.414Z,60.79
2019-02-17T10:58:47.530Z,60.60
2019-02-17T11:01:18.100Z,60.60
2019-02-17T11:03:52.230Z,60.56
2019-02-17T11:06:22.723Z,61.39
2019-02-17T11:08:53.587Z,61.22
2019-02-17T11:11:24.209Z,61.82
2019-02-17T11:13:54.920Z,61.43
2019-02-17T11:16:25.167Z,61.16
2019-02-17T11:18:55.750Z,60.42
2019-02-17T11:21:26.185Z,60.71
2019-02-17T11:23:57.019Z,60.81
2019-02-17T11:26:28.279Z,60.27
2019-02-17T11:28:58.986Z,60.44
2019-02-17T11:31:29.747Z,59.08
2019-02-17T11:34:00.376Z,59.69
2019-02-17T11:36:31.511Z,59.00
2019-02-17T11:39:01.913Z,58.08
2019-02-17T11:41:33.578Z,57.75
2019-02-17T11:44:04.127Z,58.91
2019-02-17T11:46:34.519Z,56.48
2019-02-17T11:49:05.468Z,56.59
2019-02-17T11:51:36.657Z,55.64
2019-02-17T11:54:10.462Z,54.97
2019-02-17T11:56:41.658Z,54.15
2019-02-17T11:59:12.714Z,54.30
2019-02-17T12:01:43.863Z,54.07
2019-02-17T12:04:15.480Z,54.24
2019-02-17T12:06:47.071Z,53.29
2019-02-17T12:09:18.412Z,53.91
2019-02-17T12:11:49.338Z,53.95
2019-02-17T12:14:20.260Z,53.76
2019-02-17T12:16:51.152Z,54.04
2019-02-17T12:19:22.785Z,53.88
2019-02-17T12:21:55.497Z,54.39
2019-02-17T12:24:28.408Z,54.43
2019-02-17T12:27:00.773Z,55.37
2019-02-17T12:29:33.063Z,55.06
2019-02-17T12:32:04.134Z,55.40
2019-02-17T12:34:35.282Z,55.68
2019-02-17T12:37:06.197Z,54.98
2019-02-17T12:39:37.289Z,54.54
2019-02-17T12:42:07.844Z,55.11
2019-02-17T12:44:39.414Z,55.43
2019-02-17T12:47:10.612Z,55.89
2019-02-17T12:49:41.417Z,56.25
2019-02-17T12:52:12.307Z,56.15
2019-02-17T12:54:43.401Z,56.10
2019-02-17T12:57:14.967Z,56.67
2019-02-17T12:59:46.078Z,56.41
2019-02-17T13:02:17.998Z,56.43
2019-02-17T13:04:48.892Z,56.63
2019-02-17T13:07:20.020Z,56.54
2019-02-17T13:09:50.805Z,56.99
2019-02-17T13:12:21.915Z,56.98
2019-02-17T13:14:52.772Z,56.56
2019-02-17T13:17:23.341Z,56.08
2019-02-17T13:19:55.688Z,56.98
2019-02-17T13:22:27.384Z,57.25
2019-02-17T13:24:58.449Z,57.35
2019-02-17T13:27:29.324Z,56.51
2019-02-17T13:30:00.239Z,55.96
2019-02-17T13:32:31.375Z,56.20
2019-02-17T13:35:02.419Z,55.88
2019-02-17T13:37:33.147Z,55.61
2019-02-17T13:40:06.661Z,55.33
2019-02-17T13:42:38.084Z,55.57
2019-02-17T13:45:11.736Z,54.73
2019-02-17T13:47:43.315Z,54.47
2019-02-17T13:50:16.157Z,54.87
2019-02-17T13:52:47.450Z,55.22
2019-02-17T13:55:18.318Z,55.39
2019-02-17T13:57:52.326Z,55.14
2019-02-17T14:00:23.316Z,54.90
2019-02-17T14:02:54.350Z,55.65
2019-02-17T14:05:25.983Z,55.73
2019-02-17T14:07:57.258Z,55.42
2019-02-17T14:10:28.102Z,55.84
2019-02-17T14:12:59.273Z,56.51
2019-02-17T14:15:30.242Z,55.89
2019-02-17T14:18:01.504Z,55.67
2019-02-17T14:20:32.685Z,56.25
2019-02-17T14:23:03.899Z,56.34
2019-02-17T14:25:35.290Z,56.27
2019-02-17T14:28:06.699Z,56.15
2019-02-17T14:30:37.932Z,56.55
2019-02-17T14:33:09.158Z,57.06
2019-02-17T14:35:40.436Z,56.89
2019-02-17T14:38:12.166Z,57.39
2019-02-17T14:40:43.626Z,57.67
2019-02-17T14:43:14.797Z,57.56
2019-02-17T14:45:45.821Z,57.12
2019-02-17T14:48:16.493Z,57.48
2019-02-17T14:50:48.188Z,57.62
2019-02-17T14:53:19.087Z,57.73
2019-02-17T14:55:50.236Z,57.63
2019-02-17T14:58:38.200Z,57.77
2019-02-17T15:01:52.567Z,59.08
2019-02-17T15:04:55.206Z,59.58
2019-02-17T15:07:40.789Z,60.74
2019-02-17T15:10:50.249Z,61.79
2019-02-17T15:13:49.374Z,62.73
2019-02-17T15:16:56.111Z,63.56
2019-02-17T15:19:46.016Z,64.69
2019-02-17T15:22:25.718Z,65.44
2019-02-17T15:24:56.266Z,66.30
2019-02-17T15:27:26.839Z,66.66
2019-02-17T15:29:57.366Z,66.99
2019-02-17T15:32:28.269Z,67.57
2019-02-17T15:34:58.984Z,67.92
2019-02-17T15:37:36.959Z,68.28
2019-02-17T15:40:32.296Z,68.59
2019-02-17T15:43:33.318Z,68.88
2019-02-17T15:46:47.127Z,68.62
2019-02-17T15:49:51.690Z,67.93
2019-02-17T15:52:57.423Z,68.57
2019-02-17T15:55:35.855Z,68.61
2019-02-17T15:58:35.499Z,69.56
2019-02-17T16:01:36.161Z,69.72
2019-02-17T16:04:45.048Z,68.98
2019-02-17T16:07:56.815Z,69.80
2019-02-17T16:10:40.046Z,69.41
2019-02-17T16:13:10.927Z,70.92
2019-02-17T16:15:42.208Z,70.92
2019-02-17T16:18:15.999Z,71.03
2019-02-17T16:21:03.525Z,69.99
2019-02-17T16:24:11.205Z,70.88
2019-02-17T16:26:55.606Z,70.72
2019-02-17T16:29:43.274Z,71.04
2019-02-17T16:32:23.018Z,71.22
2019-02-17T16:35:09.907Z,71.44
2019-02-17T16:38:05.183Z,72.45
2019-02-17T16:40:41.535Z,72.52
2019-02-17T16:43:15.585Z,72.12
2019-02-17T16:45:49.733Z,73.19
2019-02-17T16:48:27.607Z,73.73
2019-02-17T16:51:02.702Z,73.55
2019-02-17T16:53:33.526Z,74.01
2019-02-17T16:56:22.216Z,74.94
2019-02-17T16:59:27.352Z,74.24
2019-02-17T17:02:23.263Z,74.69
2019-02-17T17:05:23.224Z,74.62
2019-02-17T17:11:44.735Z,74.42
2019-02-17T17:14:43.727Z,75.00
2019-02-17T17:17:52.576Z,74.89
2019-02-17T17:20:59.234Z,75.32
2019-02-17T17:23:56.504Z,74.83
2019-02-17T17:26:59.986Z,76.84
2019-02-17T17:30:02.047Z,77.80
2019-02-17T17:33:24.299Z,77.41
2019-02-17T17:36:17.519Z,76.95
2019-02-17T17:39:17.967Z,76.99
2019-02-17T17:41:50.433Z,76.88
2019-02-17T17:44:23.409Z,77.25
2019-02-17T17:46:54.766Z,77.59
2019-02-17T17:49:28.010Z,77.83
2019-02-17T17:51:58.851Z,77.64
2019-02-17T17:54:29.687Z,77.08
2019-02-17T17:57:00.445Z,78.25
2019-02-17T17:59:31.048Z,78.48
2019-02-17T18:02:01.976Z,77.91
2019-02-17T18:04:32.965Z,77.40
2019-02-17T18:07:03.975Z,77.06
2019-02-17T18:09:34.888Z,77.27
2019-02-17T18:12:06.359Z,77.27
2019-02-17T18:14:38.060Z,77.97
2019-02-17T18:17:10.514Z,78.15
2019-02-17T18:19:42.321Z,78.14
2019-02-17T18:22:23.362Z,79.00
2019-02-17T18:25:00.647Z,78.54
2019-02-17T18:27:54.750Z,78.15
2019-02-17T18:30:32.199Z,78.17
2019-02-17T18:33:03.811Z,78.34
2019-02-17T18:35:35.299Z,78.88
2019-02-17T18:38:06.419Z,78.84
2019-02-17T18:40:44.743Z,79.12
2019-02-17T18:43:11.266Z,79.10
2019-02-17T18:45:43.742Z,79.01
2019-02-17T18:48:15.702Z,78.79
2019-02-17T18:51:00.337Z,78.70
2019-02-17T18:53:38.716Z,78.45
2019-02-17T18:56:10.319Z,78.91
2019-02-17T18:58:46.328Z,79.39
2019-02-17T19:01:19.643Z,78.97
2019-02-17T19:03:55.230Z,78.90
2019-02-17T19:06:35.930Z,78.92
2019-02-17T19:09:20.861Z,79.30
2019-02-17T19:11:55.570Z,80.14
2019-02-17T19:14:29.711Z,80.63
2019-02-17T19:17:05.579Z,81.14
2019-02-17T19:19:43.926Z,80.64
2019-02-17T19:22:29.939Z,79.93
2019-02-17T19:25:11.696Z,79.75
2019-02-17T19:27:51.847Z,79.55
2019-02-17T19:30:28.376Z,79.56
2019-02-17T19:33:03.866Z,79.50
2019-02-17T19:35:42.269Z,80.50
2019-02-17T19:38:17.082Z,80.23
2019-02-17T19:40:54.004Z,80.23
2019-02-17T19:43:29.965Z,80.12
2019-02-17T19:46:06.012Z,80.47
2019-02-17T19:48:42.551Z,80.52
2019-02-17T19:51:18.205Z,81.12
2019-02-17T19:53:53.055Z,80.72
2019-02-17T19:56:28.037Z,80.46
2019-02-17T19:58:59.989Z,80.49
2019-02-17T20:01:31.499Z,80.84
2019-02-17T20:04:27.495Z,81.02
2019-02-17T20:07:11.302Z,80.80
2019-02-17T20:09:45.198Z,80.75
2019-02-17T20:12:19.379Z,80.64
2019-02-17T20:14:51.113Z,80.92
2019-02-17T20:17:23.320Z,81.22
2019-02-17T20:19:54.518Z,81.08
2019-02-17T20:22:26.801Z,80.79
2019-02-17T20:24:58.685Z,81.19
2019-02-17T20:27:30.717Z,80.92
2019-02-17T20:30:03.622Z,80.50
2019-02-17T20:32:35.001Z,80.99
2019-02-17T20:35:09.096Z,80.73
2019-02-17T20:37:42.450Z,80.64
2019-02-17T20:40:15.272Z,80.79
2019-02-17T20:42:47.051Z,80.82
2019-02-17T20:45:22.827Z,81.31
2019-02-17T20:47:55.761Z,81.18
2019-02-17T20:50:34.141Z,81.05
2019-02-17T20:53:09.368Z,80.87
2019-02-17T20:56:02.862Z,80.75
2019-02-17T20:58:46.120Z,81.58
2019-02-17T21:01:21.505Z,82.11
2019-02-17T21:03:53.579Z,82.00
2019-02-17T21:06:24.517Z,81.63
2019-02-17T21:08:58.522Z,81.61
2019-02-17T21:11:53.054Z,81.50
2019-02-17T21:15:01.876Z,81.33
2019-02-17T21:17:54.908Z,81.19
2019-02-17T21:20:57.195Z,81.29
2019-02-17T21:24:14.095Z,81.33
2019-02-17T21:27:22.641Z,81.41
2019-02-17T21:30:33.923Z,81.87
2019-02-17T21:33:25.160Z,81.83
2019-02-17T21:36:00.124Z,81.94
2019-02-17T21:38:58.896Z,81.82
2019-02-17T21:41:40.465Z,81.46
2019-02-17T21:44:19.465Z,81.51
2019-02-17T21:47:09.099Z,81.73
2019-02-17T21:49:45.699Z,81.69
2019-02-17T21:52:32.487Z,81.26
2019-02-17T21:55:08.566Z,82.03
2019-02-17T21:57:39.458Z,81.46
2019-02-17T22:00:15.075Z,80.53
2019-02-17T22:02:46.404Z,81.39
2019-02-17T22:05:17.772Z,82.10
2019-02-17T22:07:52.561Z,82.21
2019-02-17T22:10:25.416Z,81.89
2019-02-17T22:12:57.354Z,82.39
2019-02-17T22:15:28.407Z,82.04
2019-02-17T22:17:59.808Z,82.04
2019-02-17T22:20:30.648Z,81.77
2019-02-17T22:23:01.850Z,82.13
2019-02-17T22:25:32.896Z,82.28
2019-02-17T22:28:04.171Z,82.58
2019-02-17T22:30:35.246Z,82.06
2019-02-17T22:33:06.444Z,82.15
2019-02-17T22:35:37.561Z,81.85
2019-02-17T22:38:08.818Z,81.62
2019-02-17T22:40:40.651Z,81.70
2019-02-17T22:43:11.771Z,81.52
2019-02-17T22:45:43.053Z,81.57
2019-02-17T22:48:14.970Z,81.57
2019-02-17T22:50:46.933Z,81.47
2019-02-17T22:53:18.690Z,81.56
2019-02-17T22:55:50.722Z,81.67
2019-02-17T22:58:21.792Z,81.67
2019-02-17T23:00:54.415Z,81.94
2019-02-17T23:03:27.845Z,81.94
2019-02-17T23:05:58.496Z,82.23
2019-02-17T23:08:29.403Z,82.02
2019-02-17T23:11:00.917Z,81.53
2019-02-17T23:13:31.805Z,81.56
2019-02-17T23:16:03.109Z,81.95
2019-02-17T23:18:34.066Z,82.37
2019-02-17T23:21:05.316Z,82.37
2019-02-17T23:23:36.141Z,82.63
2019-02-17T23:26:07.144Z,82.59
2019-02-17T23:28:38.141Z,82.60
2019-02-17T23:31:09.279Z,82.90
2019-02-17T23:33:40.450Z,82.90
2019-02-17T23:36:13.033Z,82.86
2019-02-17T23:38:44.203Z,83.03
2019-02-17T23:41:15.251Z,83.59
2019-02-17T23:43:46.297Z,84.92
2019-02-17T23:46:17.086Z,86.67
2019-02-17T23:48:48.226Z,86.69
2019-02-17T23:51:19.238Z,86.29
2019-02-17T23:53:50.471Z,86.47
2019-02-17T23:56:21.078Z,85.25
2019-02-17T23:58:52.144Z,85.25
